Time,TemperatureF,DewpointF,PressureIn,WindDirection,WindDirectionDegrees,WindSpeedMPH,WindSpeedGustMPH,Humidity,HourlyPrecipIn,Conditions,Clouds,dailyrainin,SoftwareType,DateUTC
2013-07-16 00:04:00,74.8,70.0,30.25,South,184,0.0,0.0,85,0.00,,,0.00,weatherlink.com 1.10,2013-07-16 04:04:00,
2013-07-16 00:20:00,74.8,70.0,30.25,WNW,292,0.0,1.0,86,0.00,,,0.00,weatherlink.com 1.10,2013-07-16 04:20:00,
2013-07-16 00:34:00,74.3,71.0,30.25,WNW,292,0.0,0.0,88,0.00,,,0.00,weatherlink.com 1.10,2013-07-16 04:34:00,
2013-07-16 00:49:00,73.6,71.0,30.26,WNW,292,0.0,0.0,90,0.00,,,0.00,weatherlink.com 1.10,2013-07-16 04:49:00,
2013-07-16 01:04:00,73.1,70.0,30.26,North,5,0.0,1.0,91,0.00,,,0.00,weatherlink.com 1.10,2013-07-16 05:04:00,
2013-07-16 01:19:00,72.8,70.0,30.26,North,5,0.0,1.0,92,0.00,,,0.00,weatherlink.com 1.10,2013-07-16 05:19:00,
2013-07-16 01:35:00,72.8,70.0,30.26,North,5,0.0,0.0,92,0.00,,,0.00,weatherlink.com 1.10,2013-07-16 05:35:00,
2013-07-16 01:50:00,72.6,70.0,30.26,North,5,0.0,0.0,91,0.00,,,0.00,weatherlink.com 1.10,2013-07-16 05:50:00,
2013-07-16 02:05:00,72.3,70.0,30.26,North,5,0.0,0.0,92,0.00,,,0.00,weatherlink.com 1.10,2013-07-16 06:05:00,
2013-07-16 02:20:00,72.1,70.0,30.25,North,5,0.0,0.0,93,0.00,,,0.00,weatherlink.com 1.10,2013-07-16 06:20:00,
2013-07-16 02:35:00,71.9,70.0,30.25,North,5,0.0,0.0,93,0.00,,,0.00,weatherlink.com 1.10,2013-07-16 06:35:00,
2013-07-16 02:50:00,71.7,70.0,30.25,North,5,0.0,0.0,94,0.00,,,0.00,weatherlink.com 1.10,2013-07-16 06:50:00,
2013-07-16 03:05:00,71.4,70.0,30.25,North,5,0.0,0.0,94,0.00,,,0.00,weatherlink.com 1.10,2013-07-16 07:05:00,
2013-07-16 03:20:00,71.2,69.0,30.25,North,5,0.0,0.0,94,0.00,,,0.00,weatherlink.com 1.10,2013-07-16 07:20:00,
2013-07-16 03:35:00,71.2,69.0,30.25,North,360,0.0,1.0,94,0.00,,,0.00,weatherlink.com 1.10,2013-07-16 07:35:00,
2013-07-16 03:50:00,70.9,70.0,30.25,North,360,0.0,1.0,95,0.00,,,0.00,weatherlink.com 1.10,2013-07-16 07:50:00,
2013-07-16 04:05:00,70.7,69.0,30.24,North,360,0.0,0.0,95,0.00,,,0.00,weatherlink.com 1.10,2013-07-16 08:05:00,
2013-07-16 04:20:00,70.4,69.0,30.24,North,360,0.0,1.0,94,0.00,,,0.00,weatherlink.com 1.10,2013-07-16 08:20:00,
2013-07-16 04:35:00,70.4,69.0,30.24,North,360,0.0,0.0,95,0.00,,,0.00,weatherlink.com 1.10,2013-07-16 08:35:00,
2013-07-16 04:50:00,70.2,69.0,30.24,North,360,0.0,0.0,95,0.00,,,0.00,weatherlink.com 1.10,2013-07-16 08:50:00,
2013-07-16 05:05:00,69.9,68.0,30.24,North,360,0.0,0.0,94,0.00,,,0.00,weatherlink.com 1.10,2013-07-16 09:05:00,
2013-07-16 05:20:00,69.8,68.0,30.24,North,360,0.0,0.0,95,0.00,,,0.00,weatherlink.com 1.10,2013-07-16 09:20:00,
2013-07-16 05:35:00,69.7,68.0,30.24,North,360,0.0,0.0,95,0.00,,,0.00,weatherlink.com 1.10,2013-07-16 09:35:00,
2013-07-16 05:51:00,69.5,68.0,30.25,North,360,0.0,0.0,95,0.00,,,0.00,weatherlink.com 1.10,2013-07-16 09:51:00,
2013-07-16 06:05:00,69.2,68.0,30.25,North,360,0.0,0.0,95,0.00,,,0.00,weatherlink.com 1.10,2013-07-16 10:05:00,
2013-07-16 06:20:00,69.2,68.0,30.25,North,360,0.0,1.0,94,0.00,,,0.00,weatherlink.com 1.10,2013-07-16 10:20:00,
2013-07-16 06:35:00,68.9,68.0,30.25,North,360,0.0,0.0,95,0.00,,,0.00,weatherlink.com 1.10,2013-07-16 10:35:00,
2013-07-16 06:50:00,68.7,67.0,30.25,North,360,0.0,0.0,95,0.00,,,0.00,weatherlink.com 1.10,2013-07-16 10:50:00,
2013-07-16 07:05:00,68.7,67.0,30.25,North,360,0.0,1.0,95,0.00,,,0.00,weatherlink.com 1.10,2013-07-16 11:05:00,
2013-07-16 07:20:00,69.2,68.0,30.26,North,360,0.0,1.0,94,0.00,,,0.00,weatherlink.com 1.10,2013-07-16 11:20:00,
2013-07-16 07:35:00,69.9,68.0,30.26,North,360,0.0,1.0,92,0.00,,,0.00,weatherlink.com 1.10,2013-07-16 11:35:00,
2013-07-16 07:50:00,70.6,68.0,30.26,NNW,336,0.0,1.0,91,0.00,,,0.00,weatherlink.com 1.10,2013-07-16 11:50:00,
2013-07-16 08:05:00,71.4,68.0,30.26,NNW,336,0.0,2.0,90,0.00,,,0.00,weatherlink.com 1.10,2013-07-16 12:05:00,
2013-07-16 08:19:00,72.2,69.0,30.26,NW,319,0.0,2.0,88,0.00,,,0.00,weatherlink.com 1.10,2013-07-16 12:19:00,
2013-07-16 08:34:00,73.0,69.0,30.27,NW,318,0.0,1.0,87,0.00,,,0.00,weatherlink.com 1.10,2013-07-16 12:34:00,
2013-07-16 08:49:00,73.9,69.0,30.26,NW,318,0.0,1.0,85,0.00,,,0.00,weatherlink.com 1.10,2013-07-16 12:49:00,
2013-07-16 09:04:00,75.0,70.0,30.27,NW,310,1.0,2.0,84,0.00,,,0.00,weatherlink.com 1.10,2013-07-16 13:04:00,
2013-07-16 09:20:00,76.0,71.0,30.26,West,273,0.0,2.0,83,0.00,,,0.00,weatherlink.com 1.10,2013-07-16 13:20:00,
2013-07-16 09:35:00,77.1,71.0,30.26,NNW,327,0.0,2.0,82,0.00,,,0.00,weatherlink.com 1.10,2013-07-16 13:35:00,
2013-07-16 09:50:00,78.3,71.0,30.26,NW,316,0.0,1.0,79,0.00,,,0.00,weatherlink.com 1.10,2013-07-16 13:50:00,
2013-07-16 10:05:00,79.6,73.0,30.25,NNE,13,0.0,2.0,79,0.00,,,0.00,weatherlink.com 1.10,2013-07-16 14:05:00,
2013-07-16 10:20:00,80.7,73.0,30.26,West,267,1.0,1.0,76,0.00,,,0.00,weatherlink.com 1.10,2013-07-16 14:20:00,
2013-07-16 10:35:00,81.8,74.0,30.25,WNW,296,0.0,1.0,76,0.00,,,0.00,weatherlink.com 1.10,2013-07-16 14:35:00,
2013-07-16 10:50:00,83.0,74.0,30.25,ENE,75,1.0,1.0,75,0.00,,,0.00,weatherlink.com 1.10,2013-07-16 14:50:00,
2013-07-16 11:05:00,84.3,73.0,30.25,ENE,63,1.0,2.0,69,0.00,,,0.00,weatherlink.com 1.10,2013-07-16 15:05:00,
2013-07-16 11:20:00,85.4,73.0,30.25,NE,46,0.0,2.0,67,0.00,,,0.00,weatherlink.com 1.10,2013-07-16 15:20:00,
2013-07-16 11:35:00,85.9,74.0,30.25,NNE,28,0.0,3.0,67,0.00,,,0.00,weatherlink.com 1.10,2013-07-16 15:35:00,
2013-07-16 11:50:00,86.5,73.0,30.24,West,269,0.0,2.0,65,0.00,,,0.00,weatherlink.com 1.10,2013-07-16 15:50:00,
2013-07-16 12:05:00,86.9,73.0,30.24,South,185,1.0,2.0,63,0.00,,,0.00,weatherlink.com 1.10,2013-07-16 16:05:00,
2013-07-16 12:20:00,87.7,71.0,30.24,ESE,109,1.0,3.0,58,0.00,,,0.00,weatherlink.com 1.10,2013-07-16 16:20:00,
2013-07-16 12:35:00,88.2,72.0,30.23,South,189,0.0,3.0,58,0.00,,,0.00,weatherlink.com 1.10,2013-07-16 16:35:00,
2013-07-16 12:50:00,88.8,71.0,30.23,SE,136,0.0,3.0,56,0.00,,,0.00,weatherlink.com 1.10,2013-07-16 16:50:00,
2013-07-16 13:05:00,89.0,72.0,30.23,SSW,205,0.0,3.0,58,0.00,,,0.00,weatherlink.com 1.10,2013-07-16 17:05:00,
2013-07-16 13:20:00,89.4,71.0,30.23,ENE,64,0.0,3.0,55,0.00,,,0.00,weatherlink.com 1.10,2013-07-16 17:20:00,
2013-07-16 13:35:00,89.9,69.0,30.22,ENE,73,0.0,2.0,50,0.00,,,0.00,weatherlink.com 1.10,2013-07-16 17:35:00,
2013-07-16 13:50:00,90.7,71.0,30.22,WNW,291,0.0,3.0,52,0.00,,,0.00,weatherlink.com 1.10,2013-07-16 17:50:00,
2013-07-16 14:05:00,91.4,70.0,30.22,ENE,63,1.0,3.0,50,0.00,,,0.00,weatherlink.com 1.10,2013-07-16 18:05:00,
2013-07-16 14:20:00,91.2,71.0,30.21,NE,49,1.0,4.0,51,0.00,,,0.00,weatherlink.com 1.10,2013-07-16 18:20:00,
2013-07-16 14:36:00,91.7,70.0,30.21,ENE,71,1.0,3.0,49,0.00,,,0.00,weatherlink.com 1.10,2013-07-16 18:36:00,
2013-07-16 14:51:00,92.3,70.0,30.20,SW,234,1.0,2.0,49,0.00,,,0.00,weatherlink.com 1.10,2013-07-16 18:51:00,
2013-07-16 15:06:00,92.4,70.0,30.20,WSW,254,0.0,3.0,48,0.00,,,0.00,weatherlink.com 1.10,2013-07-16 19:06:00,
2013-07-16 15:21:00,92.9,70.0,30.20,NW,306,0.0,2.0,48,0.00,,,0.00,weatherlink.com 1.10,2013-07-16 19:21:00,
2013-07-16 15:36:00,92.3,70.0,30.19,SE,137,2.0,5.0,48,0.00,,,0.00,weatherlink.com 1.10,2013-07-16 19:36:00,
2013-07-16 15:51:00,91.7,71.0,30.19,West,268,0.0,3.0,50,0.00,,,0.00,weatherlink.com 1.10,2013-07-16 19:51:00,
2013-07-16 16:06:00,91.7,67.0,30.19,ENE,59,1.0,7.0,45,0.00,,,0.00,weatherlink.com 1.10,2013-07-16 20:06:00,
2013-07-16 16:21:00,91.2,69.0,30.18,SE,138,1.0,4.0,48,0.00,,,0.00,weatherlink.com 1.10,2013-07-16 20:21:00,
2013-07-16 16:36:00,91.0,69.0,30.18,East,82,0.0,2.0,49,0.00,,,0.00,weatherlink.com 1.10,2013-07-16 20:36:00,
2013-07-16 16:51:00,90.8,69.0,30.17,East,96,0.0,1.0,49,0.00,,,0.00,weatherlink.com 1.10,2013-07-16 20:51:00,
2013-07-16 17:06:00,90.6,68.0,30.17,NNE,26,0.0,3.0,48,0.00,,,0.00,weatherlink.com 1.10,2013-07-16 21:06:00,
2013-07-16 17:21:00,90.3,70.0,30.18,NNW,338,1.0,2.0,51,0.00,,,0.00,weatherlink.com 1.10,2013-07-16 21:21:00,
2013-07-16 17:36:00,89.9,69.0,30.18,North,5,0.0,3.0,51,0.00,,,0.00,weatherlink.com 1.10,2013-07-16 21:36:00,
2013-07-16 17:51:00,89.7,70.0,30.18,NW,324,0.0,2.0,52,0.00,,,0.00,weatherlink.com 1.10,2013-07-16 21:51:00,
2013-07-16 18:06:00,89.5,70.0,30.18,NE,53,0.0,1.0,52,0.00,,,0.00,weatherlink.com 1.10,2013-07-16 22:06:00,
2013-07-16 18:21:00,89.4,69.0,30.18,ENE,76,0.0,1.0,51,0.00,,,0.00,weatherlink.com 1.10,2013-07-16 22:21:00,
2013-07-16 18:36:00,89.1,70.0,30.18,NE,55,0.0,0.0,54,0.00,,,0.00,weatherlink.com 1.10,2013-07-16 22:36:00,
2013-07-16 18:51:00,88.6,70.0,30.18,East,80,0.0,1.0,55,0.00,,,0.00,weatherlink.com 1.10,2013-07-16 22:51:00,
2013-07-16 19:06:00,87.5,71.0,30.18,East,80,0.0,0.0,59,0.00,,,0.00,weatherlink.com 1.10,2013-07-16 23:06:00,
2013-07-16 19:21:00,86.3,72.0,30.19,SE,130,0.0,1.0,62,0.00,,,0.00,weatherlink.com 1.10,2013-07-16 23:21:00,
2013-07-16 19:36:00,85.1,72.0,30.19,SE,136,0.0,0.0,65,0.00,,,0.00,weatherlink.com 1.10,2013-07-16 23:36:00,
2013-07-16 19:51:00,84.3,71.0,30.18,SE,136,0.0,0.0,64,0.00,,,0.00,weatherlink.com 1.10,2013-07-16 23:51:00,
2013-07-16 20:06:00,84.1,71.0,30.18,SSE,148,0.0,0.0,65,0.00,,,0.00,weatherlink.com 1.10,2013-07-17 00:06:00,
2013-07-16 20:21:00,83.3,72.0,30.18,SSE,154,0.0,0.0,68,0.00,,,0.00,weatherlink.com 1.10,2013-07-17 00:21:00,
2013-07-16 20:36:00,82.5,72.0,30.19,WSW,239,0.0,1.0,71,0.00,,,0.00,weatherlink.com 1.10,2013-07-17 00:36:00,
2013-07-16 20:51:00,81.6,73.0,30.19,NW,304,0.0,2.0,74,0.00,,,0.00,weatherlink.com 1.10,2013-07-17 00:51:00,
2013-07-16 21:06:00,81.0,72.0,30.20,NW,304,0.0,0.0,74,0.00,,,0.00,weatherlink.com 1.10,2013-07-17 01:06:00,
2013-07-16 21:21:00,80.4,72.0,30.21,NW,304,0.0,0.0,75,0.00,,,0.00,weatherlink.com 1.10,2013-07-17 01:21:00,
2013-07-16 21:36:00,80.0,72.0,30.21,NW,304,0.0,0.0,76,0.00,,,0.00,weatherlink.com 1.10,2013-07-17 01:36:00,
2013-07-16 21:51:00,79.8,72.0,30.21,WNW,288,0.0,1.0,76,0.00,,,0.00,weatherlink.com 1.10,2013-07-17 01:51:00,
2013-07-16 22:06:00,79.5,71.0,30.20,WNW,287,0.0,0.0,75,0.00,,,0.00,weatherlink.com 1.10,2013-07-17 02:06:00,
2013-07-16 22:21:00,79.3,71.0,30.21,West,280,0.0,0.0,76,0.00,,,0.00,weatherlink.com 1.10,2013-07-17 02:21:00,
2013-07-16 22:36:00,78.8,71.0,30.21,West,280,0.0,1.0,77,0.00,,,0.00,weatherlink.com 1.10,2013-07-17 02:36:00,
2013-07-16 22:51:00,78.7,71.0,30.20,West,280,0.0,1.0,77,0.00,,,0.00,weatherlink.com 1.10,2013-07-17 02:51:00,
2013-07-16 23:06:00,78.4,71.0,30.20,West,280,0.0,0.0,78,0.00,,,0.00,weatherlink.com 1.10,2013-07-17 03:06:00,
2013-07-16 23:21:00,78.1,71.0,30.19,West,280,0.0,0.0,79,0.00,,,0.00,weatherlink.com 1.10,2013-07-17 03:21:00,
2013-07-16 23:36:00,77.9,71.0,30.19,West,280,0.0,0.0,79,0.00,,,0.00,weatherlink.com 1.10,2013-07-17 03:36:00,
2013-07-16 23:51:00,77.6,71.0,30.20,West,280,0.0,0.0,80,0.00,,,0.00,weatherlink.com 1.10,2013-07-17 03:51:00,